createdAt,value
2019-01-28T00:00:12.964Z,30.80
2019-01-28T00:02:40.438Z,32.47
2019-01-28T00:05:07.912Z,34.43
2019-01-28T00:07:35.496Z,33.10
2019-01-28T00:10:03.789Z,34.00
2019-01-28T00:12:31.269Z,32.83
2019-01-28T00:14:58.768Z,32.27
2019-01-28T00:17:26.246Z,32.13
2019-01-28T00:19:53.727Z,34.10
2019-01-28T00:22:21.293Z,32.00
2019-01-28T00:24:48.769Z,32.00
2019-01-28T00:27:16.323Z,33.07
2019-01-28T00:29:43.826Z,30.60
2019-01-28T00:32:11.289Z,30.43
2019-01-28T00:34:38.836Z,30.80
2019-01-28T00:37:06.398Z,30.37
2019-01-28T00:39:33.971Z,31.23
2019-01-28T00:42:01.474Z,29.40
2019-01-28T00:44:28.951Z,32.70
2019-01-28T00:46:56.481Z,31.10
2019-01-28T00:49:23.928Z,30.87
2019-01-28T00:51:51.398Z,29.83
2019-01-28T00:54:18.909Z,30.93
2019-01-28T00:56:46.383Z,30.17
2019-01-28T00:59:13.876Z,31.47
2019-01-28T01:01:41.457Z,31.63
2019-01-28T01:04:08.936Z,32.87
2019-01-28T01:06:36.444Z,29.80
2019-01-28T01:09:05.416Z,28.73
2019-01-28T01:11:32.937Z,29.20
2019-01-28T01:14:00.446Z,28.23
2019-01-28T01:16:27.967Z,31.93
2019-01-28T01:18:55.423Z,30.53
2019-01-28T01:21:22.893Z,29.37
2019-01-28T01:23:50.404Z,30.80
2019-01-28T01:26:17.943Z,30.67
2019-01-28T01:28:45.413Z,31.37
2019-01-28T01:31:13.378Z,30.97
2019-01-28T01:33:40.848Z,29.17
2019-01-28T01:36:08.311Z,27.90
2019-01-28T01:38:35.797Z,27.70
2019-01-28T01:41:03.279Z,29.97
2019-01-28T01:43:30.774Z,27.93
2019-01-28T01:45:58.283Z,28.07
2019-01-28T01:48:25.747Z,28.10
2019-01-28T01:50:53.300Z,27.07
2019-01-28T01:53:20.798Z,28.50
2019-01-28T01:55:48.358Z,26.77
2019-01-28T01:58:15.833Z,26.27
2019-01-28T02:00:43.411Z,28.10
2019-01-28T02:03:10.957Z,27.93
2019-01-28T02:05:38.437Z,30.93
2019-01-28T02:08:05.968Z,29.37
2019-01-28T02:10:33.613Z,29.07
2019-01-28T02:13:01.169Z,29.00
2019-01-28T02:15:28.674Z,28.97
2019-01-28T02:17:56.163Z,28.57
2019-01-28T02:20:23.624Z,28.43
2019-01-28T02:22:51.167Z,28.90
2019-01-28T02:25:18.949Z,28.43
2019-01-28T02:27:46.419Z,27.67
2019-01-28T02:30:14.735Z,28.20
2019-01-28T02:32:42.267Z,26.47
2019-01-28T02:35:09.765Z,27.13
2019-01-28T02:37:37.252Z,30.05
2019-01-28T02:40:09.190Z,29.63
2019-01-28T02:42:36.673Z,27.87
2019-01-28T02:45:05.532Z,27.60
2019-01-28T02:47:33.088Z,28.83
2019-01-28T02:50:00.625Z,27.03
2019-01-28T02:52:28.144Z,27.17
2019-01-28T02:54:55.642Z,26.90
2019-01-28T02:57:23.135Z,22.87
2019-01-28T02:59:50.625Z,27.17
2019-01-28T03:02:18.166Z,24.20
2019-01-28T03:04:45.640Z,25.60
2019-01-28T03:07:13.188Z,25.40
2019-01-28T03:09:41.324Z,27.97
2019-01-28T03:12:08.801Z,28.33
2019-01-28T03:14:36.305Z,28.73
2019-01-28T03:17:09.587Z,27.60
2019-01-28T03:19:37.054Z,26.73
2019-01-28T03:22:04.561Z,27.30
2019-01-28T03:24:32.047Z,23.40
2019-01-28T03:26:59.573Z,26.40
2019-01-28T03:29:27.079Z,26.07
2019-01-28T03:31:54.551Z,25.80
2019-01-28T03:34:22.030Z,25.00
2019-01-28T03:36:49.540Z,26.10
2019-01-28T03:39:17.026Z,26.83
2019-01-28T03:41:44.519Z,27.47
2019-01-28T03:44:12.013Z,28.00
2019-01-28T03:46:39.488Z,28.00
2019-01-28T03:49:06.970Z,26.83
2019-01-28T03:51:34.659Z,28.67
2019-01-28T03:54:02.122Z,29.20
2019-01-28T03:56:29.671Z,27.17
2019-01-28T03:58:57.164Z,25.30
2019-01-28T04:01:26.538Z,26.37
2019-01-28T04:03:53.848Z,25.67
2019-01-28T04:06:21.353Z,25.43
2019-01-28T04:08:48.812Z,26.67
2019-01-28T04:11:16.289Z,27.13
2019-01-28T04:13:43.866Z,26.63
2019-01-28T04:16:11.417Z,26.70
2019-01-28T04:18:38.902Z,26.30
2019-01-28T04:21:06.406Z,26.13
2019-01-28T04:23:33.869Z,24.70
2019-01-28T04:26:01.419Z,25.70
2019-01-28T04:28:28.915Z,25.67
2019-01-28T04:30:56.380Z,25.77
2019-01-28T04:33:23.864Z,25.47
2019-01-28T04:35:51.384Z,26.40
2019-01-28T04:38:18.867Z,25.90
2019-01-28T04:40:46.341Z,26.53
2019-01-28T04:43:13.926Z,24.60
2019-01-28T04:45:41.435Z,26.90
2019-01-28T04:48:08.901Z,24.33
2019-01-28T04:50:36.407Z,24.00
2019-01-28T04:53:03.875Z,24.77
2019-01-28T04:55:31.414Z,24.33
2019-01-28T04:57:58.954Z,22.10
2019-01-28T05:00:26.420Z,23.57
2019-01-28T05:02:53.995Z,25.60
2019-01-28T05:05:21.506Z,24.07
2019-01-28T05:07:48.995Z,24.80
2019-01-28T05:10:17.460Z,24.43
2019-01-28T05:12:45.284Z,24.40
2019-01-28T05:15:13.849Z,25.07
2019-01-28T05:17:41.450Z,23.07
2019-01-28T05:20:10.551Z,23.03
2019-01-28T05:22:38.076Z,24.20
2019-01-28T05:25:07.158Z,24.90
2019-01-28T05:27:34.719Z,25.07
2019-01-28T05:30:02.190Z,24.60
2019-01-28T05:32:29.669Z,24.50
2019-01-28T05:34:57.262Z,26.20
2019-01-28T05:37:24.735Z,26.30
2019-01-28T05:39:52.209Z,23.83
2019-01-28T05:42:19.726Z,28.40
2019-01-28T05:44:47.193Z,26.17
2019-01-28T05:47:14.662Z,27.47
2019-01-28T05:49:42.159Z,25.50
2019-01-28T05:52:09.655Z,25.63
2019-01-28T05:54:37.165Z,23.73
2019-01-28T05:57:04.642Z,26.33
2019-01-28T05:59:32.107Z,25.57
2019-01-28T06:01:59.610Z,23.60
2019-01-28T06:04:27.064Z,23.80
2019-01-28T06:06:54.565Z,24.43
2019-01-28T06:09:22.121Z,24.60
2019-01-28T06:11:49.671Z,22.73
2019-01-28T06:14:17.167Z,25.60
2019-01-28T06:16:44.638Z,23.77
2019-01-28T06:19:12.115Z,24.93
2019-01-28T06:21:39.708Z,24.70
2019-01-28T06:24:07.250Z,22.83
2019-01-28T06:26:34.750Z,23.70
2019-01-28T06:29:02.261Z,22.20
2019-01-28T06:31:29.781Z,16.90
2019-01-28T06:33:57.249Z,20.97
2019-01-28T06:36:24.760Z,18.80
2019-01-28T06:38:52.236Z,21.47
2019-01-28T06:41:19.720Z,20.70
2019-01-28T06:43:47.331Z,20.63
2019-01-28T06:46:14.821Z,21.47
2019-01-28T06:48:42.359Z,18.80
2019-01-28T06:51:10.442Z,19.10
2019-01-28T06:53:37.995Z,17.80
2019-01-28T06:56:05.489Z,19.57
2019-01-28T06:58:32.990Z,18.73
2019-01-28T07:01:00.491Z,23.70
2019-01-28T07:03:27.973Z,23.93
2019-01-28T07:05:55.508Z,25.20
2019-01-28T07:08:23.041Z,23.17
2019-01-28T07:10:50.507Z,22.50
2019-01-28T07:13:18.094Z,22.23
2019-01-28T07:15:45.558Z,21.83
2019-01-28T07:18:13.023Z,23.07
2019-01-28T07:20:40.558Z,29.30
2019-01-28T07:23:08.032Z,30.70
2019-01-28T07:25:35.497Z,33.37
2019-01-28T07:28:02.989Z,34.60
2019-01-28T07:30:31.552Z,32.93
2019-01-28T07:32:59.152Z,33.47
2019-01-28T07:35:26.696Z,35.13
2019-01-28T07:37:54.260Z,36.00
2019-01-28T07:40:21.817Z,36.13
2019-01-28T07:42:49.385Z,34.93
2019-01-28T07:45:27.093Z,37.77
2019-01-28T07:48:02.426Z,34.93
2019-01-28T07:50:23.693Z,33.73
2019-01-28T07:52:51.187Z,31.60
2019-01-28T07:55:18.659Z,31.97
2019-01-28T07:57:46.120Z,37.97
2019-01-28T08:00:19.447Z,33.97
2019-01-28T08:02:47.431Z,35.43
2019-01-28T08:05:15.695Z,33.23
2019-01-28T08:07:43.172Z,36.83
2019-01-28T08:10:11.972Z,36.23
2019-01-28T08:12:39.466Z,36.60
2019-01-28T08:15:08.417Z,35.93
2019-01-28T08:17:35.883Z,33.60
2019-01-28T08:20:11.204Z,34.87
2019-01-28T08:22:33.111Z,34.20
2019-01-28T08:25:00.620Z,34.87
2019-01-28T08:27:28.071Z,33.80
2019-01-28T08:29:55.625Z,33.80
2019-01-28T08:32:23.088Z,32.37
2019-01-28T08:34:50.557Z,34.10
2019-01-28T08:37:18.050Z,34.20
2019-01-28T08:39:45.514Z,35.13
2019-01-28T08:42:12.985Z,33.47
2019-01-28T08:44:40.541Z,33.80
2019-01-28T08:47:08.008Z,32.47
2019-01-28T08:49:35.481Z,31.70
2019-01-28T08:52:03.118Z,32.30
2019-01-28T08:54:30.629Z,34.70
2019-01-28T08:56:58.234Z,32.07
2019-01-28T08:59:25.817Z,32.50
2019-01-28T09:01:53.418Z,29.47
2019-01-28T09:04:20.980Z,31.13
2019-01-28T09:06:48.609Z,27.77
2019-01-28T09:09:16.169Z,26.80
2019-01-28T09:11:46.367Z,27.67
2019-01-28T09:14:20.072Z,29.20
2019-01-28T09:16:47.637Z,31.93
2019-01-28T09:19:15.148Z,31.53
2019-01-28T09:21:42.652Z,29.63
2019-01-28T09:24:10.239Z,30.30
2019-01-28T09:26:38.004Z,29.73
2019-01-28T09:29:05.606Z,32.13
2019-01-28T09:31:33.500Z,29.57
2019-01-28T09:34:01.124Z,29.50
2019-01-28T09:36:29.350Z,29.10
2019-01-28T09:38:56.892Z,29.93
2019-01-28T09:41:24.540Z,30.37
2019-01-28T09:43:52.136Z,28.40
2019-01-28T09:46:19.719Z,30.40
2019-01-28T09:48:47.199Z,28.87
2019-01-28T09:51:14.841Z,26.13
2019-01-28T09:53:42.399Z,28.00
2019-01-28T09:56:10.146Z,31.07
2019-01-28T09:58:37.740Z,29.83
2019-01-28T10:01:05.208Z,29.20
2019-01-28T10:03:32.789Z,29.53
2019-01-28T10:06:00.283Z,29.37
2019-01-28T10:08:28.480Z,27.50
2019-01-28T10:10:56.037Z,27.40
2019-01-28T10:13:23.569Z,27.50
2019-01-28T10:15:51.148Z,28.63
2019-01-28T10:18:18.808Z,28.83
2019-01-28T10:20:46.798Z,28.27
2019-01-28T10:23:14.419Z,29.40
2019-01-28T10:25:42.088Z,29.30
2019-01-28T10:28:09.768Z,27.70
2019-01-28T10:30:38.333Z,28.10
2019-01-28T10:33:06.102Z,27.40
2019-01-28T10:35:33.821Z,26.87
2019-01-28T10:38:01.311Z,27.93
2019-01-28T10:40:29.867Z,25.40
2019-01-28T10:42:57.395Z,27.93
2019-01-28T10:45:25.147Z,27.30
2019-01-28T10:47:52.683Z,24.33
2019-01-28T10:50:20.987Z,23.83
2019-01-28T10:52:48.503Z,23.77
2019-01-28T10:55:20.287Z,23.40
2019-01-28T10:57:47.813Z,26.40
2019-01-28T11:00:25.559Z,27.87
2019-01-28T11:02:53.388Z,28.10
2019-01-28T11:05:21.021Z,26.67
2019-01-28T11:07:48.528Z,28.30
2019-01-28T11:10:17.512Z,26.03
2019-01-28T11:12:44.972Z,26.37
2019-01-28T11:15:14.216Z,26.30
2019-01-28T11:17:41.706Z,27.63
2019-01-28T11:20:10.582Z,24.17
2019-01-28T11:22:38.166Z,25.40
2019-01-28T11:25:07.167Z,25.70
2019-01-28T11:27:34.654Z,27.03
2019-01-28T11:30:02.351Z,26.40
2019-01-28T11:32:29.947Z,24.10
2019-01-28T11:34:57.475Z,26.83
2019-01-28T11:37:24.911Z,25.80
2019-01-28T11:39:52.409Z,25.50
2019-01-28T11:42:20.210Z,25.70
2019-01-28T11:44:48.211Z,27.07
2019-01-28T11:47:15.760Z,25.40
2019-01-28T11:49:43.322Z,25.80
2019-01-28T11:52:10.926Z,26.40
2019-01-28T11:54:38.536Z,24.90
2019-01-28T11:57:06.032Z,22.93
2019-01-28T11:59:33.509Z,26.20
2019-01-28T12:02:01.167Z,24.90
2019-01-28T12:04:28.847Z,24.23
2019-01-28T12:06:56.516Z,23.47
2019-01-28T12:09:24.150Z,22.90
2019-01-28T12:11:51.647Z,26.03
2019-01-28T12:14:19.197Z,24.50
2019-01-28T12:16:46.653Z,23.60
2019-01-28T12:19:14.589Z,24.40
2019-01-28T12:21:42.200Z,24.13
2019-01-28T12:24:09.668Z,23.30
2019-01-28T12:26:37.251Z,22.87
2019-01-28T12:29:05.236Z,22.80
2019-01-28T12:31:32.700Z,24.83
2019-01-28T12:34:00.188Z,21.27
2019-01-28T12:36:27.668Z,22.00
2019-01-28T12:38:55.190Z,20.20
2019-01-28T12:41:22.676Z,20.90
2019-01-28T12:43:50.155Z,20.60
2019-01-28T12:46:17.719Z,18.63
2019-01-28T12:48:45.289Z,19.53
2019-01-28T12:51:12.817Z,19.10
2019-01-28T12:53:40.342Z,17.13
2019-01-28T12:56:07.825Z,18.20
2019-01-28T12:58:35.327Z,17.37
2019-01-28T13:01:03.896Z,16.80
2019-01-28T13:03:31.547Z,15.70
2019-01-28T13:05:59.009Z,15.27
2019-01-28T13:08:27.780Z,15.13
2019-01-28T13:10:55.458Z,17.67
2019-01-28T13:13:22.973Z,17.27
2019-01-28T13:15:50.532Z,16.60
2019-01-28T13:18:18.081Z,17.00
2019-01-28T13:20:45.637Z,16.53
2019-01-28T13:23:13.112Z,18.13
2019-01-28T13:25:40.766Z,13.80
2019-01-28T13:28:08.469Z,17.90
2019-01-28T13:30:37.714Z,17.90
2019-01-28T13:33:06.379Z,17.27
2019-01-28T13:35:34.058Z,16.87
2019-01-28T13:38:01.474Z,16.20
2019-01-28T13:40:29.009Z,17.70
2019-01-28T13:42:56.524Z,16.97
2019-01-28T13:45:24.462Z,14.00
2019-01-28T13:47:52.474Z,15.00
2019-01-28T13:50:20.979Z,16.83
2019-01-28T13:52:48.932Z,16.30
2019-01-28T13:55:16.702Z,17.80
2019-01-28T13:57:44.179Z,17.47
2019-01-28T14:00:13.616Z,16.20
2019-01-28T14:02:41.139Z,16.10
2019-01-28T14:05:09.280Z,14.50
2019-01-28T14:07:36.732Z,13.60
2019-01-28T14:10:06.032Z,15.50
2019-01-28T14:12:33.531Z,13.40
2019-01-28T14:15:01.144Z,11.57
2019-01-28T14:17:29.883Z,12.73
2019-01-28T14:19:57.804Z,12.07
2019-01-28T14:22:25.447Z,10.30
2019-01-28T14:24:52.924Z,13.43
2019-01-28T14:27:20.419Z,13.47
2019-01-28T14:29:47.808Z,12.60
2019-01-28T14:32:15.366Z,14.17
2019-01-28T14:34:42.827Z,13.70
2019-01-28T14:37:10.307Z,11.80
2019-01-28T14:39:37.981Z,11.80
2019-01-28T14:42:05.729Z,12.80
2019-01-28T14:44:33.237Z,11.20
2019-01-28T14:47:00.731Z,11.80
2019-01-28T14:49:32.359Z,11.40
2019-01-28T14:51:57.382Z,11.53
2019-01-28T14:54:24.943Z,14.57
2019-01-28T14:56:52.483Z,11.70
2019-01-28T14:59:20.018Z,12.47
2019-01-28T15:01:47.496Z,12.33
2019-01-28T15:04:14.953Z,11.63
2019-01-28T15:06:42.663Z,11.83
2019-01-28T15:09:10.425Z,13.70
2019-01-28T15:11:37.895Z,11.37
2019-01-28T15:14:05.460Z,13.33
2019-01-28T15:16:32.930Z,14.73
2019-01-28T15:19:00.400Z,16.27
2019-01-28T15:21:27.980Z,15.80
2019-01-28T15:23:55.449Z,16.00
2019-01-28T15:26:23.025Z,15.80
2019-01-28T15:28:50.616Z,15.90
2019-01-28T15:31:18.152Z,15.20
2019-01-28T15:33:45.632Z,13.67
2019-01-28T15:36:13.128Z,16.17
2019-01-28T15:38:40.594Z,15.77
2019-01-28T15:41:08.093Z,14.57
2019-01-28T15:43:35.606Z,14.47
2019-01-28T15:46:03.426Z,15.80
2019-01-28T15:48:30.902Z,14.97
2019-01-28T15:50:58.402Z,11.50
2019-01-28T15:53:26.005Z,11.70
2019-01-28T15:55:53.535Z,10.83
2019-01-28T15:58:21.223Z,11.60
2019-01-28T16:00:49.821Z,12.57
2019-01-28T16:03:17.335Z,13.27
2019-01-28T16:05:44.841Z,16.43
2019-01-28T16:08:12.599Z,16.57
2019-01-28T16:10:40.052Z,19.07
2019-01-28T16:13:08.985Z,19.83
2019-01-28T16:15:40.902Z,18.10
2019-01-28T16:18:09.102Z,18.70
2019-01-28T16:20:36.947Z,18.80
2019-01-28T16:23:04.743Z,19.73
2019-01-28T16:25:32.228Z,16.67
2019-01-28T16:27:59.804Z,17.43
2019-01-28T16:30:28.178Z,17.10
2019-01-28T16:32:56.168Z,17.40
2019-01-28T16:35:23.772Z,18.47
2019-01-28T16:37:52.144Z,17.03
2019-01-28T16:40:29.272Z,17.43
2019-01-28T16:42:57.338Z,15.83
2019-01-28T16:45:24.809Z,17.43
2019-01-28T16:47:52.318Z,16.57
2019-01-28T16:50:26.727Z,15.97
2019-01-28T16:52:50.484Z,15.83
2019-01-28T16:55:18.009Z,15.00
2019-01-28T16:57:45.776Z,14.93
2019-01-28T17:00:20.901Z,14.63
2019-01-28T17:02:48.454Z,15.50
2019-01-28T17:05:16.178Z,14.47
2019-01-28T17:07:43.695Z,15.83
2019-01-28T17:10:13.420Z,15.30
2019-01-28T17:12:41.003Z,17.23
2019-01-28T17:15:10.009Z,16.30
2019-01-28T17:17:37.498Z,15.23
2019-01-28T17:20:09.291Z,15.07
2019-01-28T17:22:36.782Z,14.27
2019-01-28T17:25:05.950Z,13.83
2019-01-28T17:27:33.459Z,14.30
2019-01-28T17:30:00.949Z,14.63
2019-01-28T17:32:28.446Z,14.47
2019-01-28T17:34:55.848Z,14.83
2019-01-28T17:37:23.322Z,15.23
2019-01-28T17:39:50.902Z,15.33
2019-01-28T17:42:18.381Z,15.40
2019-01-28T17:44:45.872Z,15.70
2019-01-28T17:47:13.380Z,15.20
2019-01-28T17:49:40.865Z,16.03
2019-01-28T17:52:08.407Z,15.17
2019-01-28T17:54:35.943Z,17.40
2019-01-28T17:57:03.554Z,18.60
2019-01-28T17:59:31.095Z,20.90
2019-01-28T18:01:58.684Z,21.73
2019-01-28T18:04:26.201Z,21.50
2019-01-28T18:06:53.669Z,22.53
2019-01-28T18:09:21.176Z,24.07
2019-01-28T18:11:48.661Z,23.57
2019-01-28T18:14:16.142Z,22.10
2019-01-28T18:16:43.664Z,24.00
2019-01-28T18:19:11.133Z,24.10
2019-01-28T18:21:38.869Z,24.27
2019-01-28T18:24:06.549Z,23.57
2019-01-28T18:26:34.077Z,23.90
2019-01-28T18:29:01.645Z,22.77
2019-01-28T18:31:29.188Z,22.20
2019-01-28T18:33:56.759Z,24.47
2019-01-28T18:36:24.268Z,23.97
2019-01-28T18:38:51.751Z,23.63
2019-01-28T18:41:19.257Z,24.73
2019-01-28T18:43:46.732Z,25.13
2019-01-28T18:46:14.199Z,25.03
2019-01-28T18:48:41.774Z,25.37
2019-01-28T18:51:09.317Z,24.33
2019-01-28T18:53:36.854Z,23.50
2019-01-28T18:56:04.460Z,23.60
2019-01-28T18:58:32.010Z,25.00
2019-01-28T19:00:59.547Z,24.93
2019-01-28T19:03:27.146Z,24.93
2019-01-28T19:05:59.008Z,27.97
2019-01-28T19:08:43.305Z,25.57
2019-01-28T19:11:12.519Z,23.63
2019-01-28T19:13:59.800Z,24.53
2019-01-28T19:16:44.146Z,22.77
2019-01-28T19:19:15.966Z,25.17
2019-01-28T19:21:48.050Z,27.27
2019-01-28T19:24:15.517Z,25.00
2019-01-28T19:26:43.132Z,26.07
2019-01-28T19:29:10.615Z,26.97
2019-01-28T19:31:38.156Z,26.00
2019-01-28T19:34:05.674Z,26.17
2019-01-28T19:36:33.175Z,25.77
2019-01-28T19:39:00.707Z,27.00
2019-01-28T19:41:28.274Z,25.03
2019-01-28T19:43:55.812Z,25.77
2019-01-28T19:46:23.285Z,25.10
2019-01-28T19:48:50.890Z,27.10
2019-01-28T19:51:18.382Z,26.23
2019-01-28T19:53:45.848Z,25.77
2019-01-28T19:56:13.382Z,27.27
2019-01-28T19:58:40.853Z,26.27
2019-01-28T20:01:08.341Z,24.93
2019-01-28T20:03:35.936Z,25.37
2019-01-28T20:06:03.498Z,25.80
2019-01-28T20:08:31.084Z,25.67
2019-01-28T20:10:58.663Z,25.63
2019-01-28T20:13:26.176Z,26.23
2019-01-28T20:15:53.735Z,23.60
2019-01-28T20:18:21.222Z,24.57
2019-01-28T20:20:48.716Z,24.67
2019-01-28T20:23:16.265Z,24.07
2019-01-28T20:25:43.877Z,23.40
2019-01-28T20:28:11.318Z,24.03
2019-01-28T20:30:38.793Z,24.30
2019-01-28T20:33:06.368Z,25.57
2019-01-28T20:35:33.855Z,25.20
2019-01-28T20:38:01.339Z,26.13
2019-01-28T20:40:28.843Z,25.40
2019-01-28T20:42:57.961Z,24.10
2019-01-28T20:45:25.740Z,24.73
2019-01-28T20:47:53.266Z,24.50
2019-01-28T20:50:22.034Z,25.97
2019-01-28T20:52:49.567Z,24.77
2019-01-28T20:55:17.255Z,25.00
2019-01-28T20:57:44.749Z,24.40
2019-01-28T21:00:16.026Z,24.07
2019-01-28T21:02:43.549Z,21.53
2019-01-28T21:05:13.431Z,21.30
2019-01-28T21:07:41.239Z,21.23
2019-01-28T21:10:12.812Z,23.80
2019-01-28T21:12:40.362Z,23.13
2019-01-28T21:15:09.459Z,22.87
2019-01-28T21:17:36.921Z,25.07
2019-01-28T21:20:05.872Z,23.93
2019-01-28T21:22:33.372Z,21.90
2019-01-28T21:25:00.861Z,22.40
2019-01-28T21:27:28.329Z,22.93
2019-01-28T21:29:55.820Z,21.87
2019-01-28T21:32:24.297Z,23.97
2019-01-28T21:34:51.829Z,23.50
2019-01-28T21:37:20.945Z,23.50
2019-01-28T21:39:48.574Z,22.60
2019-01-28T21:42:16.077Z,23.00
2019-01-28T21:44:43.570Z,21.97
2019-01-28T21:47:11.146Z,23.60
2019-01-28T21:49:38.620Z,23.63
2019-01-28T21:52:06.101Z,22.40
2019-01-28T21:54:33.681Z,24.20
2019-01-28T21:57:01.179Z,22.00
2019-01-28T21:59:29.041Z,22.83
2019-01-28T22:01:56.578Z,24.03
2019-01-28T22:04:24.075Z,25.97
2019-01-28T22:06:51.562Z,24.70
2019-01-28T22:09:19.038Z,25.53
2019-01-28T22:11:46.542Z,25.40
2019-01-28T22:14:14.075Z,25.57
2019-01-28T22:16:41.546Z,24.80
2019-01-28T22:19:09.102Z,25.10
2019-01-28T22:21:36.575Z,24.90
2019-01-28T22:24:04.091Z,25.60
2019-01-28T22:26:31.658Z,25.50
2019-01-28T22:28:59.139Z,22.00
2019-01-28T22:31:26.627Z,23.10
2019-01-28T22:33:54.114Z,21.43
2019-01-28T22:36:21.597Z,21.77
2019-01-28T22:38:49.633Z,24.37
2019-01-28T22:41:17.311Z,22.23
2019-01-28T22:43:44.841Z,22.47
2019-01-28T22:46:12.358Z,25.73
2019-01-28T22:48:39.820Z,25.20
2019-01-28T22:51:07.292Z,23.37
2019-01-28T22:53:34.798Z,23.87
2019-01-28T22:56:02.294Z,26.80
2019-01-28T22:58:29.779Z,24.03
2019-01-28T23:00:58.739Z,24.93
2019-01-28T23:03:26.516Z,22.43
2019-01-28T23:05:54.091Z,23.10
2019-01-28T23:08:21.628Z,22.90
2019-01-28T23:10:49.139Z,21.93
2019-01-28T23:13:16.642Z,22.37
2019-01-28T23:15:44.111Z,21.97
2019-01-28T23:18:11.595Z,20.23
2019-01-28T23:20:39.099Z,21.80
2019-01-28T23:23:06.592Z,21.90
2019-01-28T23:25:34.067Z,21.17
2019-01-28T23:28:01.569Z,21.80
2019-01-28T23:30:29.052Z,23.93
2019-01-28T23:32:56.816Z,22.90
2019-01-28T23:35:24.446Z,23.20
2019-01-28T23:37:51.903Z,22.50
2019-01-28T23:40:19.395Z,20.43
2019-01-28T23:42:47.000Z,21.23
2019-01-28T23:45:15.168Z,22.80
2019-01-28T23:47:42.640Z,22.97
2019-01-28T23:50:11.176Z,23.83
2019-01-28T23:52:38.649Z,22.10
2019-01-28T23:55:06.753Z,21.93
2019-01-28T23:57:34.223Z,22.30
